Terminal Aerodrome Forecast
Issued by NWS

Home | Current Version | Previous Version | Text Only | Print | Product List | Glossary On
Versions: 1 2 3 4 5 6 7 8 9 10 11 12 13 14 15 16 17
000
FTUS45 KCYS 190500
TAFLAR
TAF
KLAR 190538Z 1906/2006 35012KT P6SM BKN080
     FM191000 VRB05KT P6SM BKN080
     FM191800 23012KT P6SM VCSH BKN050
     FM200000 21008KT P6SM SCT050=

USA.gov is the U.S. government's official web portal to all federal, state and local government web resources and services.